Time;durP1;ratioP1;P1;durP2;ratioP2;P2;SDS_P1;SDS_P2;PMS_P1;PMS_P2;Temp;Humidity;BMP_temperature;BMP_pressure;BME280_temperature;BME280_humidity;BME280_pressure;Samples;Min_cycle;Max_cycle;Signal;HPM_P1;HPM_P2
2022/02/17 00:02:13;;;;;;;0.90;0.90;;;13.90;99.90;;;;;;5015395;28;20173;-52
2022/02/17 00:04:38;;;;;;;1.05;0.95;;;13.80;99.90;;;;;;5015415;28;20042;-53
2022/02/17 00:07:04;;;;;;;0.75;0.75;;;13.80;99.90;;;;;;5015099;28;20026;-53
2022/02/17 00:09:30;;;;;;;0.85;0.85;;;13.90;99.90;;;;;;5015373;28;20375;-53
2022/02/17 00:11:55;;;;;;;1.38;0.85;;;13.90;99.90;;;;;;5015349;28;20034;-54
2022/02/17 00:14:22;;;;;;;1.00;1.00;;;13.90;99.90;;;;;;5015502;28;20049;-55
2022/02/17 00:16:52;;;;;;;1.15;1.05;;;13.90;99.90;;;;;;4997635;28;20029;-50
2022/02/17 00:19:19;;;;;;;0.70;0.70;;;13.90;99.90;;;;;;5014912;28;20386;-54
2022/02/17 00:21:45;;;;;;;1.60;0.80;;;13.90;99.90;;;;;;5015078;28;20034;-52
2022/02/17 00:24:10;;;;;;;1.02;1.00;;;13.90;99.90;;;;;;5014877;28;20022;-53
2022/02/17 00:26:36;;;;;;;2.17;1.10;;;13.90;99.90;;;;;;4997750;28;20072;-52
2022/02/17 00:29:02;;;;;;;1.30;0.75;;;13.80;99.90;;;;;;5016727;28;20018;-55
2022/02/17 00:31:27;;;;;;;0.70;0.70;;;13.80;99.90;;;;;;5018322;28;20037;-56
2022/02/17 00:33:53;;;;;;;0.73;0.73;;;13.90;99.90;;;;;;5016784;28;20026;-55
2022/02/17 00:36:18;;;;;;;1.10;0.90;;;14.00;99.90;;;;;;4997909;28;20026;-57
2022/02/17 00:38:45;;;;;;;0.70;0.70;;;14.00;99.90;;;;;;5014460;28;20037;-53
2022/02/17 00:41:11;;;;;;;0.80;0.80;;;14.00;99.90;;;;;;4997407;28;20549;-52
2022/02/17 00:43:37;;;;;;;0.82;0.82;;;14.00;99.90;;;;;;5014404;28;20026;-50
2022/02/17 00:46:03;;;;;;;0.98;0.95;;;14.00;99.90;;;;;;4996294;28;20231;-55
2022/02/17 00:48:29;;;;;;;1.08;1.00;;;13.90;99.90;;;;;;5011145;28;20375;-56
2022/02/17 00:50:55;;;;;;;0.85;0.85;;;13.90;99.90;;;;;;5013030;28;20124;-50
2022/02/17 00:53:20;;;;;;;1.50;1.10;;;14.00;99.90;;;;;;5012937;28;20113;-57
2022/02/17 00:55:46;;;;;;;1.75;1.30;;;13.90;99.90;;;;;;5014213;28;20029;-53
2022/02/17 00:58:11;;;;;;;2.15;0.90;;;13.80;99.90;;;;;;5013702;28;20105;-51
2022/02/17 01:00:37;;;;;;;0.80;0.80;;;13.90;99.90;;;;;;5014597;28;20037;-52
2022/02/17 01:03:03;;;;;;;1.42;0.90;;;13.90;99.90;;;;;;4997005;28;20474;-52
2022/02/17 01:05:28;;;;;;;1.10;1.05;;;14.00;99.90;;;;;;5014423;28;20033;-51
2022/02/17 01:07:54;;;;;;;0.77;0.77;;;14.10;99.90;;;;;;5015034;28;20144;-52
2022/02/17 01:10:20;;;;;;;1.20;1.10;;;14.10;99.90;;;;;;5019763;28;20037;-51
2022/02/17 01:12:45;;;;;;;1.95;0.98;;;14.10;99.90;;;;;;5016451;28;20042;-55
2022/02/17 01:15:11;;;;;;;0.90;0.90;;;14.10;99.90;;;;;;5016824;28;20406;-57
2022/02/17 01:17:36;;;;;;;1.50;1.17;;;14.20;99.90;;;;;;5016486;28;20056;-56
2022/02/17 01:20:05;;;;;;;1.25;1.00;;;14.20;99.90;;;;;;5016637;28;20034;-55
2022/02/17 01:22:30;;;;;;;1.00;1.00;;;14.00;99.90;;;;;;5015365;28;20395;-55
2022/02/17 01:24:56;;;;;;;1.45;0.93;;;14.00;99.90;;;;;;5015997;28;20088;-56
2022/02/17 01:27:21;;;;;;;1.52;0.98;;;14.00;99.90;;;;;;5015874;28;20034;-56
2022/02/17 01:29:47;;;;;;;0.90;0.90;;;14.00;99.90;;;;;;5016464;28;20090;-52
2022/02/17 01:32:12;;;;;;;1.17;1.08;;;14.00;99.90;;;;;;5015490;28;20022;-52
2022/02/17 01:34:39;;;;;;;1.20;1.10;;;14.00;99.90;;;;;;5007080;28;20046;-53
2022/02/17 01:37:05;;;;;;;0.85;0.85;;;14.00;99.90;;;;;;4978554;28;20035;-54
2022/02/17 01:39:31;;;;;;;2.30;1.45;;;14.00;99.90;;;;;;4994449;28;20034;-54
2022/02/17 01:41:58;;;;;;;1.73;1.15;;;14.00;99.90;;;;;;5007578;28;20052;-55
2022/02/17 01:44:25;;;;;;;0.95;0.95;;;14.00;99.90;;;;;;5015046;28;20026;-53
2022/02/17 01:46:50;;;;;;;0.77;0.77;;;14.10;99.90;;;;;;5014848;28;20065;-56
2022/02/17 01:49:16;;;;;;;1.20;1.10;;;14.10;99.90;;;;;;4997177;28;20034;-53
2022/02/17 01:51:42;;;;;;;1.70;1.10;;;14.30;99.90;;;;;;5014940;28;20042;-54
2022/02/17 01:54:08;;;;;;;1.23;0.90;;;14.40;99.90;;;;;;5014800;28;20036;-55
2022/02/17 01:56:36;;;;;;;1.38;1.25;;;14.60;99.90;;;;;;5014074;28;20037;-55
2022/02/17 01:59:07;;;;;;;0.85;0.85;;;14.60;99.90;;;;;;5014835;28;20030;-52
2022/02/17 02:01:34;;;;;;;2.75;1.63;;;14.70;99.90;;;;;;4997773;28;20124;-51
2022/02/17 02:04:00;;;;;;;1.73;0.90;;;14.70;99.30;;;;;;5014878;28;20088;-51
2022/02/17 02:06:26;;;;;;;1.90;1.05;;;14.70;99.40;;;;;;5014959;28;20117;-54
2022/02/17 02:08:52;;;;;;;1.65;1.27;;;14.60;99.20;;;;;;5013824;28;20061;-52
2022/02/17 02:11:18;;;;;;;0.98;0.98;;;14.60;99.20;;;;;;5014947;28;20476;-50
2022/02/17 02:13:43;;;;;;;3.28;1.25;;;14.40;99.60;;;;;;4996901;28;20030;-50
2022/02/17 02:16:09;;;;;;;2.75;1.40;;;14.30;99.70;;;;;;5014867;28;20048;-52
2022/02/17 02:18:35;;;;;;;1.45;1.33;;;14.00;99.90;;;;;;5014479;28;20137;-51
2022/02/17 02:21:03;;;;;;;1.23;1.13;;;13.90;99.90;;;;;;4997404;28;20022;-50
2022/02/17 02:23:32;;;;;;;2.92;1.42;;;13.70;99.90;;;;;;5014351;28;20026;-53
2022/02/17 02:25:58;;;;;;;2.35;1.50;;;13.50;99.90;;;;;;5014190;28;20060;-52
2022/02/17 02:28:30;;;;;;;3.78;1.67;;;12.80;99.90;;;;;;5014392;28;20486;-53
2022/02/17 02:30:57;;;;;;;2.42;1.70;;;12.30;99.90;;;;;;5014269;28;20034;-55
2022/02/17 02:33:23;;;;;;;1.88;1.65;;;12.20;99.90;;;;;;5013622;28;20030;-50
2022/02/17 02:35:49;;;;;;;2.45;1.48;;;12.00;99.90;;;;;;5013248;28;20034;-52
2022/02/17 02:38:15;;;;;;;3.70;1.83;;;11.80;99.90;;;;;;5013682;28;20497;-52
2022/02/17 02:40:42;;;;;;;3.30;1.60;;;11.60;99.90;;;;;;5014397;28;20029;-50
2022/02/17 02:43:08;;;;;;;3.40;1.92;;;11.50;99.90;;;;;;5013795;28;20029;-52
2022/02/17 02:45:34;;;;;;;3.53;1.60;;;11.50;99.90;;;;;;5014723;28;20108;-49
2022/02/17 02:48:05;;;;;;;4.55;1.58;;;11.40;99.90;;;;;;5014903;28;20033;-50
2022/02/17 02:50:30;;;;;;;5.93;1.63;;;11.40;99.90;;;;;;5014693;28;20041;-58
2022/02/17 02:52:56;;;;;;;1.95;1.40;;;11.40;99.90;;;;;;5013852;28;20509;-53
2022/02/17 02:55:21;;;;;;;5.43;1.98;;;11.40;99.90;;;;;;5013582;28;20028;-53
2022/02/17 02:57:47;;;;;;;2.30;1.55;;;11.20;99.90;;;;;;5013885;28;20034;-54
2022/02/17 03:00:13;;;;;;;2.88;1.90;;;11.10;99.90;;;;;;5013757;28;20034;-58
2022/02/17 03:02:39;;;;;;;3.72;2.00;;;10.80;99.90;;;;;;5013628;28;20037;-59
2022/02/17 03:05:05;;;;;;;1.98;1.73;;;10.60;99.90;;;;;;5013631;28;20390;-60
2022/02/17 03:07:30;;;;;;;5.53;2.13;;;10.40;99.90;;;;;;5012404;28;20076;-59
2022/02/17 03:09:56;;;;;;;3.17;1.88;;;10.40;99.90;;;;;;5013147;28;20057;-59
2022/02/17 03:12:21;;;;;;;4.97;2.17;;;10.40;99.90;;;;;;5008208;28;20038;-60
2022/02/17 03:14:47;;;;;;;3.92;1.90;;;10.30;99.90;;;;;;5013069;28;20508;-59
2022/02/17 03:17:13;;;;;;;4.72;1.85;;;10.20;99.90;;;;;;5013537;28;20440;-60
2022/02/17 03:19:38;;;;;;;3.92;1.73;;;10.20;99.90;;;;;;5012380;28;20042;-58
2022/02/17 03:22:04;;;;;;;4.15;1.90;;;10.20;99.90;;;;;;5013170;28;20112;-57
2022/02/17 03:24:30;;;;;;;4.50;1.70;;;10.20;99.90;;;;;;5012564;28;20034;-58
2022/02/17 03:26:56;;;;;;;7.03;1.95;;;10.10;99.90;;;;;;5013967;28;20038;-60
2022/02/17 03:29:21;;;;;;;4.70;1.75;;;10.00;99.90;;;;;;5014134;28;20133;-57
2022/02/17 03:31:47;;;;;;;3.83;1.65;;;10.00;99.90;;;;;;5013581;28;20048;-56
2022/02/17 03:34:13;;;;;;;3.78;2.35;;;10.00;99.90;;;;;;5013299;28;20038;-53
2022/02/17 03:36:38;;;;;;;4.70;1.45;;;9.90;99.90;;;;;;5012921;28;20584;-53
2022/02/17 03:39:05;;;;;;;4.22;1.88;;;9.80;99.90;;;;;;5013348;28;20393;-56
2022/02/17 03:41:30;;;;;;;2.05;1.35;;;9.90;99.90;;;;;;5012992;28;20107;-58
2022/02/17 03:43:56;;;;;;;4.85;1.77;;;9.90;99.90;;;;;;4995966;28;20065;-58
2022/02/17 03:46:22;;;;;;;2.20;1.35;;;9.90;99.90;;;;;;5012749;28;20533;-55
2022/02/17 03:48:47;;;;;;;2.63;1.23;;;9.90;99.90;;;;;;5012991;28;20045;-55
2022/02/17 03:51:13;;;;;;;1.02;1.00;;;9.90;99.90;;;;;;5013053;28;20429;-56
2022/02/17 03:53:38;;;;;;;1.35;1.17;;;9.90;99.90;;;;;;5012678;28;20030;-56
2022/02/17 03:56:04;;;;;;;3.78;1.70;;;9.90;99.90;;;;;;5013126;28;20069;-49
2022/02/17 04:01:14;;;;;;;1.08;0.98;;;9.70;99.90;;;;;;5013103;28;20129;-58
2022/02/17 04:03:39;;;;;;;1.33;1.15;;;9.60;99.90;;;;;;5013137;28;20057;-55
2022/02/17 04:06:05;;;;;;;3.03;1.10;;;9.50;99.90;;;;;;5012796;28;20437;-58
2022/02/17 04:08:30;;;;;;;2.08;1.50;;;9.40;99.90;;;;;;5012809;28;20429;-54
2022/02/17 04:10:56;;;;;;;5.00;1.80;;;9.30;99.90;;;;;;5013289;28;20030;-62
2022/02/17 04:13:22;;;;;;;2.78;1.65;;;9.20;99.90;;;;;;5012483;28;20065;-59
2022/02/17 04:15:47;;;;;;;3.67;1.45;;;9.10;99.90;;;;;;4995381;28;20034;-60
2022/02/17 04:18:13;;;;;;;3.80;1.35;;;9.00;99.90;;;;;;4979096;28;20030;-58
2022/02/17 04:20:39;;;;;;;5.15;1.70;;;8.90;99.90;;;;;;5012818;28;20120;-61
2022/02/17 04:23:04;;;;;;;2.53;1.42;;;8.90;99.90;;;;;;5012088;28;20042;-59
2022/02/17 04:25:30;;;;;;;2.42;1.50;;;8.80;99.90;;;;;;5012716;28;20037;-58
2022/02/17 04:27:55;;;;;;;3.05;1.85;;;8.80;99.90;;;;;;5012886;28;20117;-58
2022/02/17 04:30:21;;;;;;;3.70;2.00;;;8.90;99.90;;;;;;5013422;28;20045;-58
2022/02/17 04:32:46;;;;;;;2.40;1.55;;;8.80;99.90;;;;;;4995805;28;20033;-58
2022/02/17 04:35:12;;;;;;;4.35;1.67;;;8.80;99.90;;;;;;5016437;28;20034;-56
2022/02/17 04:37:38;;;;;;;2.63;1.60;;;8.80;99.90;;;;;;5015975;28;20041;-59
2022/02/17 04:40:04;;;;;;;3.03;1.83;;;8.80;99.90;;;;;;4998589;28;20125;-56
2022/02/17 04:42:31;;;;;;;3.13;1.67;;;8.90;99.90;;;;;;5015441;28;20436;-53
2022/02/17 04:44:56;;;;;;;1.10;1.00;;;9.00;99.90;;;;;;5016583;28;20076;-54
2022/02/17 04:47:22;;;;;;;3.55;1.70;;;9.00;99.90;;;;;;5016377;28;20042;-52
2022/02/17 04:49:50;;;;;;;5.03;1.90;;;9.10;99.90;;;;;;5016318;28;20030;-57
2022/02/17 04:52:16;;;;;;;1.90;1.50;;;9.10;99.90;;;;;;4998959;28;20068;-55
2022/02/17 04:54:42;;;;;;;5.38;1.92;;;9.20;99.90;;;;;;5016144;28;20348;-53
2022/02/17 04:57:08;;;;;;;2.38;1.70;;;9.20;99.90;;;;;;5016009;28;20099;-53
2022/02/17 04:59:34;;;;;;;4.20;1.70;;;9.30;99.90;;;;;;5015720;28;20470;-52
2022/02/17 05:02:00;;;;;;;8.00;1.98;;;9.10;99.90;;;;;;4997844;28;20057;-53
2022/02/17 05:04:26;;;;;;;1.33;1.13;;;8.80;99.90;;;;;;4998164;28;20379;-52
2022/02/17 05:06:52;;;;;;;2.47;1.60;;;8.70;99.90;;;;;;5015679;28;20038;-54
2022/02/17 05:09:17;;;;;;;2.72;1.48;;;8.50;99.90;;;;;;5015547;28;20045;-54
2022/02/17 05:11:43;;;;;;;3.22;1.48;;;8.40;99.90;;;;;;5015662;28;20041;-53
2022/02/17 05:14:09;;;;;;;1.90;1.27;;;8.30;99.90;;;;;;4997706;28;20221;-52
2022/02/17 05:16:34;;;;;;;2.72;1.60;;;8.40;99.90;;;;;;4997897;28;20378;-53
2022/02/17 05:19:03;;;;;;;2.75;1.40;;;8.30;99.90;;;;;;5015487;28;20034;-55
2022/02/17 05:21:29;;;;;;;3.97;1.48;;;8.40;99.90;;;;;;4997961;28;20026;-54
2022/02/17 05:23:55;;;;;;;3.78;1.10;;;8.50;99.90;;;;;;4997966;28;20117;-54
2022/02/17 05:26:21;;;;;;;1.77;1.27;;;8.60;99.90;;;;;;4998159;28;20080;-53
2022/02/17 05:28:46;;;;;;;3.80;1.42;;;8.70;99.90;;;;;;5015062;28;20125;-52
2022/02/17 05:31:12;;;;;;;4.40;1.35;;;8.70;99.90;;;;;;4998008;28;20062;-54
2022/02/17 05:33:37;;;;;;;2.42;1.95;;;8.70;99.90;;;;;;5014999;28;20041;-56
2022/02/17 05:36:03;;;;;;;3.95;1.60;;;8.80;99.90;;;;;;5015086;28;20038;-56
2022/02/17 05:38:29;;;;;;;3.95;1.70;;;8.80;99.90;;;;;;4980617;28;20196;-50
2022/02/17 05:40:54;;;;;;;5.65;1.80;;;8.80;99.90;;;;;;4997311;28;20022;-52
2022/02/17 05:43:20;;;;;;;4.53;1.92;;;8.80;99.90;;;;;;5014407;28;20026;-54
2022/02/17 05:45:46;;;;;;;3.10;1.63;;;8.70;99.90;;;;;;4997946;28;20049;-54
2022/02/17 05:48:11;;;;;;;5.72;2.35;;;8.60;99.90;;;;;;5014738;28;20561;-52
2022/02/17 05:50:37;;;;;;;4.75;2.10;;;8.50;99.90;;;;;;5014649;28;20038;-54
2022/02/17 05:53:03;;;;;;;8.25;2.90;;;8.30;99.90;;;;;;5014654;28;20112;-55
2022/02/17 05:55:28;;;;;;;7.45;2.15;;;8.10;99.90;;;;;;5014802;28;20049;-55
2022/02/17 05:57:54;;;;;;;7.10;2.92;;;7.90;99.90;;;;;;5014764;28;20098;-55
2022/02/17 06:00:20;;;;;;;6.07;2.08;;;8.00;99.90;;;;;;5014888;28;20597;-54
2022/02/17 06:02:46;;;;;;;9.77;3.22;;;8.00;99.90;;;;;;5014711;28;20061;-55
2022/02/17 06:05:12;;;;;;;4.45;1.92;;;8.00;99.90;;;;;;5014536;28;20041;-55
2022/02/17 06:07:39;;;;;;;6.65;2.33;;;8.00;99.90;;;;;;4996762;28;20045;-56
2022/02/17 06:10:06;;;;;;;4.97;1.95;;;7.90;99.90;;;;;;5014639;28;20037;-56
2022/02/17 06:12:39;;;;;;;4.15;2.28;;;7.90;99.90;;;;;;5014801;28;20030;-54
2022/02/17 06:15:05;;;;;;;5.22;2.10;;;7.90;99.90;;;;;;5014877;28;20109;-52
2022/02/17 06:17:30;;;;;;;3.60;1.95;;;8.00;99.90;;;;;;5014573;28;20219;-54
2022/02/17 06:19:56;;;;;;;3.65;1.90;;;8.00;99.90;;;;;;5014081;28;20079;-58
2022/02/17 06:22:21;;;;;;;5.43;1.73;;;8.00;99.90;;;;;;5013612;28;20037;-53
2022/02/17 06:24:49;;;;;;;6.97;2.28;;;8.20;99.90;;;;;;5014157;28;20089;-53
2022/02/17 06:27:15;;;;;;;3.22;1.70;;;8.30;99.90;;;;;;5014056;28;20044;-54
2022/02/17 06:29:40;;;;;;;5.18;1.95;;;8.40;99.90;;;;;;5014161;28;20033;-53
2022/02/17 06:32:06;;;;;;;5.45;2.17;;;8.40;99.90;;;;;;4996468;28;20064;-56
2022/02/17 06:34:32;;;;;;;4.50;1.98;;;8.30;99.90;;;;;;5007919;28;20130;-52
2022/02/17 06:36:57;;;;;;;2.45;1.65;;;8.30;99.90;;;;;;4993682;28;20061;-56
2022/02/17 06:39:23;;;;;;;6.10;1.88;;;8.20;99.90;;;;;;4994353;28;20035;-55
2022/02/17 06:41:48;;;;;;;5.78;1.95;;;8.20;99.90;;;;;;4996430;28;20026;-53
2022/02/17 06:44:14;;;;;;;3.88;2.17;;;7.90;99.90;;;;;;5013254;28;20041;-53
2022/02/17 06:46:39;;;;;;;4.78;1.83;;;7.90;99.90;;;;;;5015050;28;20022;-53
2022/02/17 06:49:05;;;;;;;3.35;1.63;;;7.70;99.90;;;;;;5014113;28;20393;-51
2022/02/17 06:51:31;;;;;;;5.53;2.40;;;7.70;99.90;;;;;;5020622;28;20029;-58
2022/02/17 06:53:57;;;;;;;4.85;1.80;;;7.80;99.90;;;;;;5033418;28;20033;-55
2022/02/17 06:56:22;;;;;;;5.15;1.88;;;7.90;99.90;;;;;;5033028;28;20030;-54
2022/02/17 06:58:48;;;;;;;4.80;1.90;;;7.90;99.90;;;;;;5015899;28;20045;-53
2022/02/17 07:01:13;;;;;;;6.32;2.00;;;7.80;99.90;;;;;;5032168;28;20033;-53
2022/02/17 07:03:39;;;;;;;4.63;1.92;;;7.70;99.90;;;;;;5014479;28;20034;-53
2022/02/17 07:06:06;;;;;;;8.23;2.40;;;7.60;99.90;;;;;;5014193;28;20478;-55
2022/02/17 07:08:31;;;;;;;4.55;1.80;;;7.50;99.90;;;;;;5011934;28;20026;-55
2022/02/17 07:10:59;;;;;;;3.00;1.77;;;7.60;99.90;;;;;;5015191;28;20092;-53
2022/02/17 07:13:27;;;;;;;2.53;1.40;;;7.60;99.90;;;;;;5013266;28;20038;-51
2022/02/17 07:15:53;;;;;;;11.05;2.10;;;7.70;99.90;;;;;;5013311;28;20104;-49
2022/02/17 07:18:19;;;;;;;3.22;1.60;;;7.70;99.90;;;;;;5013078;28;20038;-52
2022/02/17 07:20:47;;;;;;;2.20;1.55;;;7.90;99.90;;;;;;5014799;28;20022;-54
2022/02/17 07:23:14;;;;;;;3.08;1.80;;;8.10;99.90;;;;;;5014430;28;20026;-53
2022/02/17 07:25:40;;;;;;;2.03;1.50;;;8.20;99.90;;;;;;5018709;28;20124;-53
2022/02/17 07:28:06;;;;;;;4.57;1.58;;;8.10;99.90;;;;;;5013364;28;20041;-52
2022/02/17 07:30:33;;;;;;;2.88;1.40;;;8.00;99.90;;;;;;5013506;28;20045;-53
2022/02/17 07:32:58;;;;;;;3.08;1.70;;;7.90;99.90;;;;;;5013228;28;20090;-52
2022/02/17 07:35:24;;;;;;;3.90;1.60;;;7.90;99.90;;;;;;5041666;22;20130;-58
2022/02/17 07:37:49;;;;;;;3.30;1.83;;;7.90;99.90;;;;;;5032770;28;20132;-57
2022/02/17 07:40:15;;;;;;;3.42;1.70;;;7.90;99.90;;;;;;5033391;28;20129;-55
2022/02/17 07:42:43;;;;;;;3.63;1.73;;;7.90;99.90;;;;;;5015618;28;20456;-54
2022/02/17 07:45:09;;;;;;;5.18;1.98;;;7.70;99.90;;;;;;5012978;28;20470;-52
2022/02/17 07:47:36;;;;;;;4.88;1.90;;;7.70;99.90;;;;;;4995381;28;20482;-58
2022/02/17 07:50:03;;;;;;;5.25;1.85;;;7.70;99.90;;;;;;5017036;28;20041;-61
2022/02/17 07:52:29;;;;;;;5.57;1.77;;;7.60;99.90;;;;;;5015864;28;20076;-58
2022/02/17 07:54:54;;;;;;;4.05;1.75;;;7.50;99.90;;;;;;5014919;28;20033;-60
2022/02/17 07:57:20;;;;;;;4.75;1.70;;;7.30;99.90;;;;;;5012723;28;20121;-59
2022/02/17 07:59:46;;;;;;;5.43;1.92;;;7.10;99.90;;;;;;5012643;28;20389;-59
2022/02/17 08:02:12;;;;;;;4.30;2.30;;;7.10;99.90;;;;;;5012921;28;20041;-59
2022/02/17 08:04:38;;;;;;;6.32;2.35;;;7.10;99.90;;;;;;5012758;28;20083;-57
2022/02/17 08:07:06;;;;;;;5.40;2.60;;;7.10;99.90;;;;;;5013106;28;20113;-59
2022/02/17 08:09:34;;;;;;;5.15;2.30;;;7.00;99.90;;;;;;5022671;28;20041;-59
2022/02/17 08:12:00;;;;;;;7.28;2.22;;;7.00;99.90;;;;;;5016741;28;20085;-58
2022/02/17 08:14:26;;;;;;;7.85;2.95;;;7.20;99.90;;;;;;5019135;28;20037;-57
2022/02/17 08:16:51;;;;;;;7.20;2.60;;;7.20;99.90;;;;;;5016445;28;20034;-59
2022/02/17 08:19:17;;;;;;;7.35;2.40;;;7.20;99.90;;;;;;5021737;28;20036;-61
2022/02/17 08:21:44;;;;;;;8.35;2.53;;;7.30;99.90;;;;;;5016041;28;20041;-58
2022/02/17 08:24:09;;;;;;;6.18;2.70;;;7.40;99.90;;;;;;5016244;28;20049;-60
2022/02/17 08:26:35;;;;;;;5.00;2.47;;;7.60;99.90;;;;;;5016564;28;20556;-60
2022/02/17 08:29:01;;;;;;;5.32;2.55;;;7.70;99.90;;;;;;5015485;28;20038;-60
2022/02/17 08:31:27;;;;;;;7.80;2.72;;;7.80;99.90;;;;;;5015881;28;20034;-59
2022/02/17 08:33:54;;;;;;;5.57;2.92;;;7.90;99.90;;;;;;5015808;28;20033;-56
2022/02/17 08:36:20;;;;;;;7.68;2.80;;;8.10;99.90;;;;;;5012444;28;20029;-58
2022/02/17 08:38:45;;;;;;;10.93;2.88;;;8.30;99.90;;;;;;5015365;28;20034;-59
2022/02/17 08:41:11;;;;;;;6.50;2.58;;;8.30;99.90;;;;;;5016249;28;20032;-58
2022/02/17 08:43:37;;;;;;;6.60;2.70;;;8.40;99.90;;;;;;5015414;28;20022;-58
2022/02/17 08:46:04;;;;;;;8.43;3.17;;;8.50;99.90;;;;;;5016169;28;20160;-60
2022/02/17 08:48:30;;;;;;;6.80;2.97;;;8.50;99.90;;;;;;5017272;28;20037;-58
2022/02/17 08:50:56;;;;;;;18.55;3.30;;;8.60;99.90;;;;;;5016609;28;20030;-58
2022/02/17 08:53:22;;;;;;;10.63;3.50;;;8.60;99.90;;;;;;5015398;28;20048;-57
2022/02/17 08:55:48;;;;;;;7.28;3.03;;;8.70;99.90;;;;;;5007784;28;20485;-56
2022/02/17 08:58:13;;;;;;;6.50;2.85;;;8.80;98.80;;;;;;5016240;28;20104;-59
2022/02/17 09:00:39;;;;;;;6.63;2.15;;;8.90;98.10;;;;;;5020868;28;20416;-55
2022/02/17 09:03:11;;;;;;;5.47;2.35;;;8.90;97.40;;;;;;5019355;28;20066;-56
2022/02/17 09:05:38;;;;;;;4.90;2.38;;;8.90;97.30;;;;;;5019725;28;20687;-60
2022/02/17 09:08:05;;;;;;;6.82;2.55;;;9.00;97.40;;;;;;5015140;28;20029;-58
2022/02/17 09:10:31;;;;;;;5.28;2.25;;;8.80;98.10;;;;;;5015824;28;20085;-57
2022/02/17 09:12:56;;;;;;;5.63;2.70;;;8.80;98.30;;;;;;5022841;28;20739;-60
2022/02/17 09:15:22;;;;;;;5.32;3.30;;;8.80;97.70;;;;;;5024236;28;20037;-59
2022/02/17 09:17:48;;;;;;;7.10;2.60;;;8.70;98.20;;;;;;5029690;28;20041;-57
2022/02/17 09:20:15;;;;;;;7.20;3.63;;;8.70;98.50;;;;;;5018072;28;20042;-56
2022/02/17 09:22:42;;;;;;;5.90;2.78;;;8.60;98.70;;;;;;4998595;28;20446;-60
2022/02/17 09:25:08;;;;;;;6.13;2.30;;;8.60;98.80;;;;;;5016458;28;20440;-56
2022/02/17 09:27:34;;;;;;;9.95;2.30;;;8.50;98.90;;;;;;5014247;28;20030;-57
2022/02/17 09:30:01;;;;;;;9.18;3.00;;;8.50;99.30;;;;;;5014974;28;20034;-59
2022/02/17 09:32:26;;;;;;;10.30;2.58;;;8.40;99.50;;;;;;5017506;28;20065;-58
2022/02/17 09:34:52;;;;;;;7.20;2.50;;;8.40;99.90;;;;;;5020902;28;20418;-61
2022/02/17 09:37:17;;;;;;;6.80;2.20;;;8.30;99.90;;;;;;5017872;28;20045;-57
2022/02/17 09:39:45;;;;;;;6.75;2.22;;;8.20;99.90;;;;;;5019894;28;20163;-58
2022/02/17 09:42:10;;;;;;;11.23;2.47;;;8.20;99.90;;;;;;5033550;28;20029;-57
2022/02/17 09:44:36;;;;;;;6.70;1.92;;;8.10;99.90;;;;;;5000444;28;20041;-59
2022/02/17 09:47:03;;;;;;;6.63;2.13;;;8.10;99.90;;;;;;5029821;28;20026;-58
2022/02/17 09:49:32;;;;;;;5.22;2.55;;;8.10;99.90;;;;;;5023202;28;20385;-60
2022/02/17 09:51:58;;;;;;;11.48;3.22;;;8.20;99.90;;;;;;5021896;28;20401;-59
2022/02/17 09:54:23;;;;;;;7.78;2.80;;;8.40;99.90;;;;;;5030151;28;20029;-59
2022/02/17 09:56:49;;;;;;;6.20;2.20;;;8.50;99.90;;;;;;5020859;28;20040;-57
2022/02/17 09:59:16;;;;;;;7.82;2.42;;;8.50;99.90;;;;;;4997765;28;20437;-58
2022/02/17 10:02:20;;;;;;;5.47;2.28;;;8.60;99.90;;;;;;5013723;28;20038;-59
2022/02/17 10:04:53;;;;;;;6.38;3.03;;;8.60;99.90;;;;;;5003044;28;20030;-57
2022/02/17 10:07:39;;;;;;;8.15;3.03;;;8.60;99.90;;;;;;5013081;28;20088;-60
2022/02/17 10:10:08;;;;;;;6.35;3.00;;;8.70;99.90;;;;;;5014800;28;20124;-59
2022/02/17 10:12:56;;;;;;;9.00;3.05;;;8.70;99.90;;;;;;5013239;28;20427;-58
2022/02/17 10:15:36;;;;;;;8.50;2.58;;;8.70;99.90;;;;;;5013674;28;20059;-61
2022/02/17 10:18:12;;;;;;;12.73;2.75;;;8.80;99.90;;;;;;5013490;28;20509;-59
2022/02/17 10:20:54;;;;;;;10.25;2.95;;;8.70;99.90;;;;;;5013862;28;20506;-60
2022/02/17 10:23:21;;;;;;;9.73;2.92;;;8.70;99.90;;;;;;4996527;28;20026;-59
2022/02/17 10:26:09;;;;;;;8.77;2.95;;;8.70;99.90;;;;;;5014348;28;20664;-58
2022/02/17 10:28:38;;;;;;;10.32;3.00;;;8.80;99.90;;;;;;5013118;28;20081;-59
2022/02/17 10:31:05;;;;;;;7.90;2.50;;;8.80;99.90;;;;;;5013189;28;20030;-56
2022/02/17 10:33:39;;;;;;;7.75;2.70;;;8.90;99.90;;;;;;5012489;28;20033;-61
2022/02/17 10:36:05;;;;;;;10.73;3.57;;;9.00;99.90;;;;;;5032231;28;20405;-58
2022/02/17 10:38:30;;;;;;;8.07;2.65;;;9.20;99.30;;;;;;5033431;28;20027;-59
2022/02/17 10:40:56;;;;;;;11.15;3.30;;;9.30;99.00;;;;;;5030447;28;20028;-58
2022/02/17 10:43:28;;;;;;;7.80;2.88;;;9.40;98.20;;;;;;5013754;28;20076;-59
2022/02/17 10:45:53;;;;;;;13.05;3.75;;;9.50;97.60;;;;;;5013845;28;20033;-60
2022/02/17 10:48:23;;;;;;;5.22;2.67;;;9.60;97.10;;;;;;5013470;28;20030;-59
2022/02/17 10:51:03;;;;;;;8.10;2.90;;;9.60;95.50;;;;;;5014292;28;20514;-59
2022/02/17 10:53:35;;;;;;;6.70;2.58;;;9.70;95.40;;;;;;5013535;28;20038;-60
2022/02/17 10:56:04;;;;;;;9.32;2.60;;;9.70;94.60;;;;;;5014069;28;20087;-60
2022/02/17 10:58:46;;;;;;;8.23;3.28;;;9.70;95.10;;;;;;5013202;28;20030;-59
2022/02/17 11:01:13;;;;;;;7.35;2.78;;;9.90;95.80;;;;;;5013376;28;20033;-59
2022/02/17 11:03:39;;;;;;;9.43;2.83;;;9.70;95.80;;;;;;5014021;28;20037;-60
2022/02/17 11:06:06;;;;;;;7.97;2.80;;;9.80;95.90;;;;;;5014099;28;20525;-55
2022/02/17 11:08:32;;;;;;;7.82;3.42;;;9.80;95.00;;;;;;5013951;28;20026;-61
2022/02/17 11:10:59;;;;;;;5.28;2.40;;;9.90;94.70;;;;;;4996083;28;20042;-57
2022/02/17 11:13:25;;;;;;;9.25;3.03;;;10.00;93.90;;;;;;5013270;28;20068;-56
2022/02/17 11:15:53;;;;;;;7.68;2.40;;;10.10;92.10;;;;;;5013362;28;20029;-55
2022/02/17 11:18:20;;;;;;;6.97;2.55;;;10.10;92.40;;;;;;5012931;28;20030;-55
2022/02/17 11:20:49;;;;;;;11.52;3.13;;;10.00;92.90;;;;;;5012169;28;20034;-59
2022/02/17 11:23:19;;;;;;;7.55;2.60;;;10.00;93.60;;;;;;5012810;28;20435;-59
2022/02/17 11:25:45;;;;;;;7.95;2.95;;;9.90;96.00;;;;;;4995886;28;20041;-59
2022/02/17 11:28:14;;;;;;;9.95;3.00;;;9.70;97.10;;;;;;5013387;28;20045;-60
2022/02/17 11:30:42;;;;;;;9.48;2.78;;;9.60;97.80;;;;;;5014185;28;20114;-60
2022/02/17 11:33:27;;;;;;;9.55;2.90;;;9.60;98.00;;;;;;4995517;28;20486;-55
2022/02/17 11:35:59;;;;;;;8.10;2.63;;;9.70;97.40;;;;;;5029653;28;20033;-58
2022/02/17 11:38:32;;;;;;;10.98;3.00;;;9.70;97.70;;;;;;5032692;28;20036;-59
2022/02/17 11:41:00;;;;;;;7.53;2.30;;;9.80;97.10;;;;;;5028175;28;20030;-56
2022/02/17 11:43:31;;;;;;;8.60;3.03;;;9.90;96.20;;;;;;5017830;28;20040;-58
2022/02/17 11:45:57;;;;;;;8.30;2.85;;;10.00;96.00;;;;;;5019511;28;20053;-58
2022/02/17 11:48:36;;;;;;;7.72;2.63;;;10.00;95.40;;;;;;5019663;28;20041;-60
2022/02/17 11:51:17;;;;;;;8.07;2.60;;;9.90;94.10;;;;;;5019762;28;20030;-58
2022/02/17 11:53:45;;;;;;;6.35;2.70;;;9.90;94.00;;;;;;5019511;28;20114;-57
2022/02/17 11:56:14;;;;;;;5.22;2.63;;;9.80;93.00;;;;;;5019826;28;20121;-59
2022/02/17 11:58:39;;;;;;;6.40;2.70;;;9.90;91.90;;;;;;5018844;28;20030;-61
2022/02/17 12:01:26;;;;;;;8.15;2.55;;;9.90;91.00;;;;;;5019510;28;20421;-58
2022/02/17 12:04:05;;;;;;;4.78;2.28;;;9.90;90.90;;;;;;5019222;28;20022;-59
2022/02/17 12:06:41;;;;;;;6.03;2.63;;;9.90;90.20;;;;;;5002230;28;20029;-58
2022/02/17 12:09:08;;;;;;;7.32;3.42;;;10.00;90.70;;;;;;5018316;28;20073;-59
2022/02/17 12:11:37;;;;;;;7.75;2.60;;;10.00;91.10;;;;;;5019564;28;20516;-60
2022/02/17 12:14:07;;;;;;;8.23;2.63;;;10.00;91.50;;;;;;5019024;28;20065;-59
2022/02/17 12:16:35;;;;;;;8.68;3.28;;;10.20;92.00;;;;;;5019555;28;20125;-61
2022/02/17 12:19:08;;;;;;;6.85;2.70;;;10.10;92.20;;;;;;5019391;28;20029;-58
2022/02/17 12:21:35;;;;;;;5.60;2.25;;;10.20;92.30;;;;;;5019420;28;20037;-58
2022/02/17 12:24:02;;;;;;;4.43;2.35;;;10.20;93.70;;;;;;5018297;28;20492;-58
2022/02/17 12:26:39;;;;;;;10.73;3.42;;;10.20;93.20;;;;;;5019250;28;20026;-57
2022/02/17 12:29:33;;;;;;;9.70;3.20;;;9.90;94.10;;;;;;5019253;28;20109;-60
2022/02/17 12:32:01;;;;;;;9.65;2.95;;;9.70;95.70;;;;;;5019147;28;20052;-59
2022/02/17 12:34:27;;;;;;;4.57;2.25;;;9.40;97.10;;;;;;5024094;28;20037;-60
2022/02/17 12:36:54;;;;;;;5.13;2.33;;;9.10;97.30;;;;;;5021458;28;20037;-56
2022/02/17 12:39:21;;;;;;;7.43;2.05;;;9.00;98.00;;;;;;5038715;28;20111;-58
2022/02/17 12:42:07;;;;;;;6.43;2.25;;;9.10;97.60;;;;;;5010467;28;20547;-58
2022/02/17 12:44:35;;;;;;;6.85;2.13;;;9.20;98.00;;;;;;5018843;28;20051;-56
2022/02/17 12:47:06;;;;;;;7.40;2.13;;;8.90;98.10;;;;;;5018774;28;20030;-60
2022/02/17 12:49:33;;;;;;;5.97;2.63;;;8.90;98.20;;;;;;5018641;28;20083;-59
2022/02/17 12:52:28;;;;;;;11.02;2.28;;;9.00;97.90;;;;;;5017425;28;20030;-61
2022/02/17 12:54:56;;;;;;;5.20;2.70;;;9.10;97.00;;;;;;4998600;28;20049;-59
2022/02/17 12:57:22;;;;;;;9.18;3.08;;;9.30;96.20;;;;;;5015793;28;20379;-60